Time;durP1;ratioP1;P1;durP2;ratioP2;P2;SDS_P1;SDS_P2;PMS_P1;PMS_P2;Temp;Humidity;BMP_temperature;BMP_pressure;BME280_temperature;BME280_humidity;BME280_pressure;Samples;Min_cycle;Max_cycle;Signal;HPM_P1;HPM_P2
2022/07/31 00:00:07;;;;;;;5.07;4.68;;;17.50;99.90;;;;;;5006031;28;20239;-85
2022/07/31 00:02:33;;;;;;;6.38;5.70;;;17.40;99.90;;;;;;5006229;28;20199;-84
2022/07/31 00:04:58;;;;;;;4.90;4.50;;;18.70;99.90;;;;;;5006001;28;20192;-84
2022/07/31 00:07:24;;;;;;;6.55;5.95;;;18.70;99.90;;;;;;5007568;28;20279;-83
2022/07/31 00:09:49;;;;;;;5.25;4.85;;;17.50;99.90;;;;;;5006872;28;20207;-84
2022/07/31 00:12:16;;;;;;;5.78;5.35;;;18.00;99.90;;;;;;5005798;28;20243;-84
2022/07/31 00:14:41;;;;;;;7.60;5.85;;;17.10;99.90;;;;;;5005062;28;20262;-83
2022/07/31 00:17:07;;;;;;;6.38;5.78;;;17.40;99.90;;;;;;5005636;28;20278;-84
2022/07/31 00:19:32;;;;;;;5.32;4.93;;;17.60;99.90;;;;;;5007272;28;20261;-83
2022/07/31 00:21:58;;;;;;;6.90;5.72;;;17.00;99.90;;;;;;5005383;28;21435;-84
2022/07/31 00:24:24;;;;;;;6.50;5.70;;;17.60;99.90;;;;;;5005783;28;20180;-83
2022/07/31 00:26:51;;;;;;;6.32;5.72;;;17.10;99.90;;;;;;5005392;28;20186;-84
2022/07/31 00:29:17;;;;;;;6.60;6.00;;;17.50;99.90;;;;;;5007259;28;20188;-83
2022/07/31 00:31:43;;;;;;;7.28;6.57;;;17.10;99.90;;;;;;5005279;28;20200;-84
2022/07/31 00:34:08;;;;;;;6.68;6.07;;;17.00;99.90;;;;;;5005386;28;20187;-83
2022/07/31 00:36:34;;;;;;;7.90;7.22;;;17.30;99.90;;;;;;5005521;28;20190;-84
2022/07/31 00:38:59;;;;;;;7.28;6.68;;;17.70;99.90;;;;;;5006514;28;20291;-84
2022/07/31 00:41:35;;;;;;;8.40;7.60;;;17.40;99.90;;;;;;5006391;28;20693;-85
2022/07/31 00:44:00;;;;;;;7.72;6.60;;;17.40;99.90;;;;;;5013732;28;20193;-83
2022/07/31 00:46:26;;;;;;;6.78;6.25;;;16.60;99.90;;;;;;5005415;28;20176;-84
2022/07/31 00:48:51;;;;;;;7.30;6.57;;;16.60;99.90;;;;;;5005059;28;20187;-83
2022/07/31 00:51:17;;;;;;;8.18;7.47;;;17.20;99.90;;;;;;5005195;28;20203;-84
2022/07/31 00:53:42;;;;;;;7.97;7.18;;;17.80;99.90;;;;;;5005063;28;20179;-84
2022/07/31 00:56:08;;;;;;;9.13;8.20;;;17.20;99.90;;;;;;5005284;28;20190;-85
2022/07/31 00:58:34;;;;;;;7.75;7.15;;;17.50;99.90;;;;;;5005133;28;20200;-85
2022/07/31 01:00:59;;;;;;;7.55;6.80;;;17.50;99.90;;;;;;5004593;28;20491;-83
2022/07/31 01:03:25;;;;;;;8.00;7.20;;;16.50;99.90;;;;;;5006104;28;20671;-86
2022/07/31 01:05:50;;;;;;;8.18;7.45;;;17.60;99.90;;;;;;5004787;28;20182;-83
2022/07/31 01:08:16;;;;;;;7.30;6.70;;;16.40;99.90;;;;;;5004932;28;20192;-82
2022/07/31 01:11:10;;;;;;;9.15;7.97;;;16.80;99.90;;;;;;5004822;28;20290;-83
2022/07/31 01:13:58;;;;;;;10.00;7.43;;;16.50;99.90;;;;;;5012028;28;20184;-83
2022/07/31 01:16:27;;;;;;;8.45;7.75;;;16.50;99.90;;;;;;5005215;28;20180;-84
2022/07/31 01:18:56;;;;;;;8.07;7.28;;;16.70;99.90;;;;;;5005567;28;20207;-85
2022/07/31 01:21:33;;;;;;;10.32;7.90;;;16.60;99.90;;;;;;5005778;28;20199;-81
2022/07/31 01:24:37;;;;;;;9.35;8.20;;;16.50;99.90;;;;;;5004808;28;20225;-83
2022/07/31 01:27:22;;;;;;;9.23;7.80;;;16.40;99.90;;;;;;4993055;28;21021;-83
2022/07/31 01:29:52;;;;;;;9.13;8.32;;;16.50;99.90;;;;;;5004505;28;20179;-82
2022/07/31 01:32:24;;;;;;;9.73;8.82;;;16.40;99.90;;;;;;5012671;28;20689;-83
2022/07/31 01:35:00;;;;;;;9.60;8.73;;;16.80;99.90;;;;;;5004414;28;20277;-83
2022/07/31 01:37:43;;;;;;;9.43;7.00;;;16.50;99.90;;;;;;5005319;28;20201;-81
2022/07/31 01:40:13;;;;;;;8.27;7.47;;;16.40;99.90;;;;;;5004107;28;20203;-84
2022/07/31 01:42:43;;;;;;;9.45;8.60;;;16.90;99.90;;;;;;5012292;28;20199;-83
2022/07/31 01:45:13;;;;;;;9.63;8.68;;;17.50;99.90;;;;;;5013118;28;20560;-84
2022/07/31 01:47:40;;;;;;;9.35;8.45;;;16.40;99.90;;;;;;5005663;28;20698;-82
2022/07/31 01:50:07;;;;;;;10.15;8.82;;;16.90;99.90;;;;;;5004313;28;20227;-84
2022/07/31 01:52:34;;;;;;;10.00;8.95;;;16.20;99.90;;;;;;5004587;28;20203;-84
2022/07/31 01:55:01;;;;;;;14.23;8.68;;;16.20;99.90;;;;;;5003977;28;20177;-84
2022/07/31 01:57:29;;;;;;;7.85;7.25;;;17.20;99.90;;;;;;5013811;28;20179;-85
2022/07/31 01:59:58;;;;;;;9.73;8.75;;;16.20;99.90;;;;;;5004188;28;20276;-86
2022/07/31 02:02:25;;;;;;;10.57;9.57;;;16.20;99.90;;;;;;5013177;28;20192;-84
2022/07/31 02:04:52;;;;;;;10.75;9.75;;;16.30;99.90;;;;;;5004171;28;20184;-86
2022/07/31 02:07:19;;;;;;;9.63;8.70;;;16.20;99.90;;;;;;5005521;28;20714;-81
2022/07/31 02:09:45;;;;;;;10.43;9.43;;;16.80;99.90;;;;;;5003672;28;20727;-84
2022/07/31 02:12:11;;;;;;;10.23;9.18;;;16.20;99.90;;;;;;5005373;28;20669;-86
2022/07/31 02:14:40;;;;;;;10.18;9.18;;;16.10;99.90;;;;;;5004195;28;20560;-81
2022/07/31 02:17:07;;;;;;;9.70;8.70;;;16.80;99.90;;;;;;5003965;28;20187;-84
2022/07/31 02:19:36;;;;;;;10.02;9.02;;;16.20;99.90;;;;;;5003480;28;20206;-85
2022/07/31 02:22:02;;;;;;;10.80;9.80;;;16.20;99.90;;;;;;5003154;28;20199;-85
2022/07/31 02:24:28;;;;;;;11.23;10.23;;;16.20;99.90;;;;;;5005024;28;20183;-84
2022/07/31 02:26:55;;;;;;;12.50;11.02;;;16.20;99.90;;;;;;5003380;28;20280;-86
2022/07/31 02:29:22;;;;;;;11.95;10.95;;;16.90;99.90;;;;;;5013816;28;20279;-85
2022/07/31 02:31:49;;;;;;;11.57;10.52;;;16.70;99.90;;;;;;5014784;28;20218;-83
2022/07/31 02:34:17;;;;;;;11.65;10.40;;;16.20;99.90;;;;;;5008498;28;20545;-85
2022/07/31 02:36:45;;;;;;;12.63;11.43;;;16.20;99.90;;;;;;5007080;28;20203;-84
2022/07/31 02:39:13;;;;;;;11.82;10.82;;;16.20;99.90;;;;;;5006769;28;20740;-83
2022/07/31 02:41:40;;;;;;;12.07;10.98;;;17.50;99.90;;;;;;5007313;28;20203;-83
2022/07/31 02:44:07;;;;;;;13.07;11.88;;;16.00;99.90;;;;;;5014627;28;20600;-84
2022/07/31 02:46:33;;;;;;;13.23;12.13;;;16.00;99.90;;;;;;5007943;28;20263;-85
2022/07/31 02:48:59;;;;;;;14.95;13.43;;;16.00;99.90;;;;;;5007013;28;20863;-85
2022/07/31 02:51:25;;;;;;;14.32;12.95;;;16.90;99.90;;;;;;5006845;28;20302;-84
2022/07/31 02:53:50;;;;;;;13.65;12.30;;;15.90;99.90;;;;;;5006840;28;20184;-84
2022/07/31 02:56:17;;;;;;;16.02;14.50;;;15.90;99.90;;;;;;5006908;28;20716;-84
2022/07/31 02:58:42;;;;;;;16.23;14.85;;;15.90;99.90;;;;;;5006402;28;20554;-83
2022/07/31 03:01:08;;;;;;;15.75;14.45;;;15.90;99.90;;;;;;5008068;28;20186;-84
2022/07/31 03:03:34;;;;;;;16.65;14.95;;;15.90;99.90;;;;;;5007781;28;20187;-85
2022/07/31 03:05:59;;;;;;;15.57;14.27;;;16.00;99.90;;;;;;5006613;28;20184;-85
2022/07/31 03:08:26;;;;;;;15.55;14.20;;;15.90;99.90;;;;;;5006802;28;20191;-81
2022/07/31 03:10:52;;;;;;;15.93;14.43;;;15.90;99.90;;;;;;5007316;28;20226;-79
2022/07/31 03:13:21;;;;;;;15.43;14.13;;;15.90;99.90;;;;;;5006617;28;20388;-79
2022/07/31 03:15:48;;;;;;;15.93;14.43;;;15.90;99.90;;;;;;5006199;28;20270;-79
2022/07/31 03:18:15;;;;;;;17.00;15.32;;;15.90;99.90;;;;;;5022709;28;21330;-80
2022/07/31 03:20:45;;;;;;;16.65;15.15;;;15.90;99.90;;;;;;5007349;28;20215;-79
2022/07/31 03:23:12;;;;;;;15.98;14.57;;;15.90;99.90;;;;;;5006035;28;20575;-80
2022/07/31 03:25:39;;;;;;;15.77;14.25;;;15.90;99.90;;;;;;5007470;28;21173;-79
2022/07/31 03:28:05;;;;;;;16.98;15.40;;;15.90;99.90;;;;;;5006646;28;20184;-79
2022/07/31 03:30:31;;;;;;;15.45;14.00;;;15.80;99.90;;;;;;5007595;28;20175;-80
2022/07/31 03:32:57;;;;;;;15.93;14.52;;;15.80;99.90;;;;;;5006753;28;20794;-81
2022/07/31 03:35:24;;;;;;;16.83;15.43;;;15.70;99.90;;;;;;5006012;28;20183;-81
2022/07/31 03:37:49;;;;;;;16.58;15.13;;;15.70;99.90;;;;;;5005161;28;20234;-79
2022/07/31 03:40:15;;;;;;;15.68;14.38;;;15.60;99.90;;;;;;5005448;28;21137;-79
2022/07/31 03:42:42;;;;;;;15.48;14.02;;;15.60;99.90;;;;;;5005591;28;20235;-79
2022/07/31 03:45:09;;;;;;;15.40;14.00;;;15.50;99.90;;;;;;5015138;28;20179;-81
2022/07/31 03:47:35;;;;;;;14.75;13.55;;;15.50;99.90;;;;;;5005672;28;20180;-79
2022/07/31 03:50:01;;;;;;;16.52;14.88;;;15.40;99.90;;;;;;5007362;28;20563;-81
2022/07/31 03:52:28;;;;;;;15.90;14.50;;;15.50;99.90;;;;;;5005159;28;20246;-79
2022/07/31 03:54:54;;;;;;;15.95;14.55;;;15.40;99.90;;;;;;5006958;28;20190;-80
2022/07/31 03:57:21;;;;;;;16.15;14.77;;;15.50;99.90;;;;;;5004830;28;20184;-80
2022/07/31 03:59:49;;;;;;;13.27;12.23;;;15.50;99.90;;;;;;5006244;28;20222;-78
2022/07/31 04:02:15;;;;;;;15.90;14.60;;;15.50;99.90;;;;;;5005103;28;20607;-80
2022/07/31 04:04:41;;;;;;;15.75;14.35;;;15.40;99.90;;;;;;5006173;28;20176;-80
2022/07/31 04:07:07;;;;;;;15.93;14.45;;;15.30;99.90;;;;;;5005237;28;20188;-79
2022/07/31 04:09:33;;;;;;;15.57;14.25;;;15.40;99.90;;;;;;5005474;28;20266;-81
2022/07/31 04:11:59;;;;;;;14.63;13.32;;;15.40;99.90;;;;;;5004476;28;20299;-79
2022/07/31 04:14:24;;;;;;;14.07;12.88;;;15.40;99.90;;;;;;5005519;28;20180;-80
2022/07/31 04:16:50;;;;;;;14.20;12.82;;;15.70;99.90;;;;;;5006068;28;20664;-79
2022/07/31 04:19:15;;;;;;;14.02;12.88;;;15.40;99.90;;;;;;5005337;28;20198;-80
2022/07/31 04:21:41;;;;;;;16.67;14.10;;;15.40;99.90;;;;;;5020742;28;20195;-80
2022/07/31 04:24:07;;;;;;;14.85;13.35;;;15.40;99.90;;;;;;5006989;28;20259;-81
2022/07/31 04:26:32;;;;;;;14.27;13.07;;;15.40;99.90;;;;;;5004687;28;20214;-78
2022/07/31 04:28:58;;;;;;;15.05;13.38;;;15.40;99.90;;;;;;5004735;28;20184;-80
2022/07/31 04:31:24;;;;;;;13.00;11.90;;;15.40;99.90;;;;;;5004762;28;20238;-80
2022/07/31 04:33:50;;;;;;;13.60;12.50;;;15.40;99.90;;;;;;5006153;28;20587;-79
2022/07/31 04:36:18;;;;;;;14.88;13.52;;;15.40;99.90;;;;;;5006223;28;20183;-80
2022/07/31 04:38:44;;;;;;;15.55;14.15;;;15.40;99.90;;;;;;5004645;28;20195;-79
2022/07/31 04:41:09;;;;;;;15.02;13.77;;;15.40;99.90;;;;;;5004708;28;20519;-81
2022/07/31 04:43:35;;;;;;;15.90;14.55;;;15.50;99.90;;;;;;5004608;28;20198;-81
2022/07/31 04:46:00;;;;;;;15.25;13.98;;;15.50;99.90;;;;;;5005691;28;20196;-80
2022/07/31 04:48:26;;;;;;;15.15;13.82;;;15.60;99.90;;;;;;5004683;28;20238;-78
2022/07/31 04:50:51;;;;;;;17.35;15.85;;;15.70;99.90;;;;;;5005089;28;20180;-81
2022/07/31 04:53:17;;;;;;;16.40;14.85;;;15.70;99.90;;;;;;5004406;28;20245;-80
2022/07/31 04:56:31;;;;;;;15.45;14.15;;;15.70;99.90;;;;;;5004243;28;20584;-80
2022/07/31 04:58:28;;;;;;;17.33;15.73;;;15.80;99.90;;;;;;5005410;28;20207;-80
2022/07/31 05:00:53;;;;;;;18.08;16.45;;;15.80;99.90;;;;;;5004266;28;20598;-81
2022/07/31 05:03:19;;;;;;;18.27;16.70;;;16.00;99.90;;;;;;5006015;28;20199;-80
2022/07/31 05:05:45;;;;;;;16.80;15.35;;;16.20;99.90;;;;;;5002659;28;20206;-79
2022/07/31 05:08:11;;;;;;;14.63;13.32;;;16.60;99.90;;;;;;4998214;28;20180;-80
2022/07/31 05:13:20;;;;;;;10.10;9.20;;;18.30;99.90;;;;;;5004867;28;20198;-82
2022/07/31 05:15:46;;;;;;;9.10;8.27;;;19.60;99.90;;;;;;5001246;28;20180;-82
2022/07/31 05:18:11;;;;;;;8.23;7.53;;;20.60;99.90;;;;;;5000831;28;20210;-80
2022/07/31 05:20:37;;;;;;;7.97;7.18;;;21.80;47.10;;;;;;5002547;28;20210;-81
2022/07/31 05:23:02;;;;;;;6.93;6.32;;;22.10;25.90;;;;;;5003765;28;20249;-83
2022/07/31 05:25:28;;;;;;;7.63;6.93;;;22.20;17.50;;;;;;5002680;28;20176;-79
2022/07/31 05:27:54;;;;;;;8.10;7.40;;;21.80;23.30;;;;;;5002610;28;20191;-79
2022/07/31 05:30:19;;;;;;;8.18;7.40;;;21.20;56.50;;;;;;5001550;28;20179;-80
2022/07/31 05:32:45;;;;;;;7.80;7.10;;;21.00;90.50;;;;;;4999564;28;20302;-84
2022/07/31 05:35:10;;;;;;;10.75;8.32;;;20.60;77.70;;;;;;5005231;28;20183;-74
2022/07/31 05:37:36;;;;;;;7.65;6.88;;;20.50;99.90;;;;;;5002039;28;20266;-76
2022/07/31 05:40:01;;;;;;;7.75;7.10;;;20.20;94.70;;;;;;4998989;28;20282;-77
2022/07/31 05:42:27;;;;;;;9.02;7.95;;;20.50;94.70;;;;;;4998059;28;20294;-76
2022/07/31 05:44:52;;;;;;;7.88;7.25;;;20.50;97.40;;;;;;5000233;28;20685;-77
2022/07/31 05:47:18;;;;;;;8.45;7.40;;;20.60;92.70;;;;;;4998793;28;20263;-76
2022/07/31 05:49:43;;;;;;;7.95;7.15;;;20.60;83.90;;;;;;5000638;28;20188;-76
2022/07/31 05:52:09;;;;;;;8.02;7.10;;;20.40;91.70;;;;;;5000883;28;20195;-76
2022/07/31 05:54:34;;;;;;;8.93;7.13;;;20.20;99.90;;;;;;5001015;28;20182;-77
2022/07/31 05:57:00;;;;;;;10.55;6.35;;;20.80;99.90;;;;;;5000881;28;20190;-77
2022/07/31 05:59:26;;;;;;;10.90;6.18;;;21.90;42.40;;;;;;5000413;28;20767;-77
2022/07/31 06:01:51;;;;;;;6.57;6.07;;;23.10;1.00;;;;;;5002087;28;20203;-77
2022/07/31 06:04:17;;;;;;;6.45;5.70;;;24.30;1.00;;;;;;5007482;28;20245;-76
2022/07/31 06:06:42;;;;;;;7.10;5.65;;;25.10;1.00;;;;;;5009519;28;20187;-76
2022/07/31 06:09:08;;;;;;;7.75;6.97;;;25.50;1.00;;;;;;5009727;28;20681;-78
2022/07/31 06:11:33;;;;;;;8.55;7.07;;;26.20;99.90;;;;;;5008101;28;20234;-78
2022/07/31 06:13:59;;;;;;;6.05;5.45;;;26.80;1.00;;;;;;5009052;28;20187;-78
2022/07/31 06:16:25;;;;;;;6.28;5.30;;;27.20;25.30;;;;;;5010600;28;20406;-78
2022/07/31 06:18:51;;;;;;;7.57;6.68;;;27.10;99.90;;;;;;5007579;28;20638;-77
2022/07/31 06:21:17;;;;;;;7.35;5.95;;;26.70;1.00;;;;;;5005322;28;20203;-77
2022/07/31 06:23:43;;;;;;;7.72;6.15;;;26.40;1.00;;;;;;5005131;28;20535;-77
2022/07/31 06:26:08;;;;;;;8.55;7.70;;;26.00;1.00;;;;;;5004969;28;20190;-75
2022/07/31 06:28:34;;;;;;;9.00;7.65;;;24.80;99.90;;;;;;5004918;28;20179;-76
2022/07/31 06:30:59;;;;;;;6.95;6.25;;;24.00;1.00;;;;;;5004673;28;20190;-76
2022/07/31 06:33:25;;;;;;;7.15;6.43;;;23.60;99.90;;;;;;5005071;28;20599;-77
2022/07/31 06:35:50;;;;;;;8.38;6.97;;;23.00;1.00;;;;;;5004677;28;20609;-76
2022/07/31 06:38:16;;;;;;;9.25;6.72;;;22.60;1.00;;;;;;5002781;28;20210;-77
2022/07/31 06:40:41;;;;;;;6.35;5.13;;;22.30;1.00;;;;;;5004560;28;20556;-76
2022/07/31 06:43:07;;;;;;;5.78;5.15;;;22.00;1.00;;;;;;5004582;28;20661;-76
2022/07/31 06:45:32;;;;;;;5.18;4.68;;;22.00;1.00;;;;;;5004855;28;20188;-76
2022/07/31 06:47:58;;;;;;;5.72;4.32;;;21.80;1.00;;;;;;5004776;28;20192;-76
2022/07/31 06:50:24;;;;;;;5.03;4.30;;;21.80;1.00;;;;;;5003208;28;20183;-77
2022/07/31 06:52:49;;;;;;;6.38;4.80;;;21.80;1.00;;;;;;5004348;28;20353;-74
2022/07/31 06:55:15;;;;;;;7.53;4.93;;;21.50;1.00;;;;;;5005453;28;20194;-77
2022/07/31 06:57:41;;;;;;;7.07;5.00;;;21.50;1.00;;;;;;5004127;28;20188;-77
2022/07/31 07:00:08;;;;;;;7.35;4.63;;;21.60;1.00;;;;;;5004738;28;20261;-77
2022/07/31 07:02:34;;;;;;;6.63;5.93;;;21.60;1.00;;;;;;5004636;28;20673;-77
2022/07/31 07:04:59;;;;;;;5.13;4.60;;;21.60;1.00;;;;;;5004737;28;20779;-76
2022/07/31 07:07:25;;;;;;;6.78;5.43;;;21.70;1.00;;;;;;5003068;28;20175;-77
2022/07/31 07:09:51;;;;;;;7.43;5.13;;;21.80;1.00;;;;;;5002943;28;20981;-77
2022/07/31 07:12:16;;;;;;;7.28;4.93;;;22.00;1.00;;;;;;5004224;28;20207;-77
2022/07/31 07:14:42;;;;;;;5.05;4.53;;;22.40;1.00;;;;;;5004329;28;20195;-77
2022/07/31 07:17:07;;;;;;;6.65;4.47;;;22.70;1.00;;;;;;5004859;28;20236;-77
2022/07/31 07:19:33;;;;;;;5.07;4.07;;;22.80;1.00;;;;;;5004248;28;20211;-76
2022/07/31 07:21:58;;;;;;;4.82;4.25;;;23.20;1.00;;;;;;5004999;28;20204;-77
2022/07/31 07:24:24;;;;;;;7.13;4.70;;;23.70;1.00;;;;;;5005111;28;20278;-77
2022/07/31 07:26:49;;;;;;;5.72;5.13;;;23.60;1.00;;;;;;5004863;28;20589;-77
2022/07/31 07:29:15;;;;;;;8.52;5.53;;;23.80;99.90;;;;;;5004659;28;20587;-77
2022/07/31 07:31:40;;;;;;;6.97;5.07;;;24.00;1.00;;;;;;5004825;28;20214;-77
2022/07/31 07:34:08;;;;;;;5.93;4.85;;;23.80;99.90;;;;;;5005034;28;20179;-77
2022/07/31 07:36:34;;;;;;;7.30;4.90;;;23.80;99.90;;;;;;5004766;28;20236;-75
2022/07/31 07:38:59;;;;;;;8.50;5.68;;;23.90;99.90;;;;;;5004319;28;20210;-77
2022/07/31 07:41:25;;;;;;;5.32;4.70;;;23.80;1.00;;;;;;5004552;28;20219;-77
2022/07/31 07:43:51;;;;;;;6.63;5.53;;;23.40;99.90;;;;;;5004502;28;20180;-76
2022/07/31 07:46:17;;;;;;;8.23;5.32;;;23.50;99.90;;;;;;5003640;28;20677;-76
2022/07/31 07:48:42;;;;;;;5.20;4.68;;;23.60;1.00;;;;;;5003765;28;20183;-76
2022/07/31 07:51:08;;;;;;;5.80;4.65;;;23.70;99.90;;;;;;5001928;28;20599;-77
2022/07/31 07:53:34;;;;;;;6.55;4.95;;;23.70;54.60;;;;;;5004151;28;20614;-77
2022/07/31 07:56:00;;;;;;;6.70;4.30;;;23.90;99.90;;;;;;5003891;28;20184;-76
2022/07/31 07:58:26;;;;;;;5.70;3.92;;;24.00;89.10;;;;;;5003584;28;20190;-77
2022/07/31 08:00:51;;;;;;;6.35;4.35;;;23.90;99.90;;;;;;5003603;28;20215;-76
2022/07/31 08:03:17;;;;;;;5.88;4.45;;;23.90;1.00;;;;;;5003494;28;20219;-77
2022/07/31 08:05:42;;;;;;;5.13;4.63;;;24.00;1.00;;;;;;5003558;28;20184;-77
2022/07/31 08:08:08;;;;;;;4.72;4.28;;;23.80;99.90;;;;;;5003315;28;20230;-77
2022/07/31 08:10:33;;;;;;;4.40;4.00;;;23.90;1.00;;;;;;5002219;28;20625;-77
2022/07/31 08:12:59;;;;;;;5.80;4.55;;;24.10;10.00;;;;;;5002865;28;20513;-77
2022/07/31 08:15:25;;;;;;;4.53;3.85;;;24.10;1.00;;;;;;5003541;28;20218;-77
2022/07/31 08:17:51;;;;;;;7.13;4.50;;;24.20;99.90;;;;;;5002795;28;20274;-76
2022/07/31 08:20:17;;;;;;;4.65;3.75;;;24.20;99.90;;;;;;5003199;28;20683;-76
2022/07/31 08:22:43;;;;;;;5.35;3.72;;;24.20;1.00;;;;;;5002748;28;20275;-74
2022/07/31 08:25:08;;;;;;;3.25;2.95;;;24.40;1.00;;;;;;5002983;28;20603;-77
2022/07/31 08:27:34;;;;;;;4.07;3.50;;;24.50;1.00;;;;;;5002523;28;20634;-77
2022/07/31 08:30:01;;;;;;;3.75;3.05;;;24.60;70.40;;;;;;5001351;28;20654;-74
2022/07/31 08:32:27;;;;;;;3.35;3.05;;;24.70;1.00;;;;;;5002932;28;20234;-75
2022/07/31 08:34:54;;;;;;;4.00;3.53;;;24.90;99.90;;;;;;5003538;28;20685;-76
2022/07/31 08:37:20;;;;;;;5.82;4.00;;;25.00;1.00;;;;;;5003494;28;20191;-76
2022/07/31 08:39:47;;;;;;;4.10;3.65;;;25.00;99.90;;;;;;5002754;28;20282;-77
2022/07/31 08:42:13;;;;;;;5.63;4.20;;;25.10;99.90;;;;;;5002363;28;20195;-76
2022/07/31 08:44:41;;;;;;;4.88;4.15;;;25.30;1.00;;;;;;5003031;28;20182;-76
2022/07/31 08:47:08;;;;;;;5.82;4.13;;;25.00;1.00;;;;;;5002235;28;20539;-77
2022/07/31 08:49:45;;;;;;;6.15;4.30;;;24.90;99.90;;;;;;5002602;28;20461;-77
2022/07/31 08:52:23;;;;;;;4.88;3.95;;;24.60;1.00;;;;;;5001766;28;20203;-74
2022/07/31 08:54:50;;;;;;;3.85;3.38;;;24.70;1.00;;;;;;5003291;28;20691;-76
2022/07/31 08:57:17;;;;;;;4.53;3.85;;;24.90;99.90;;;;;;5002938;28;20202;-77
2022/07/31 08:59:42;;;;;;;4.28;3.42;;;24.50;99.90;;;;;;5002409;28;20237;-76
2022/07/31 09:02:10;;;;;;;3.03;2.80;;;24.80;99.90;;;;;;5002614;28;20257;-77
2022/07/31 09:04:35;;;;;;;3.55;3.00;;;24.40;99.90;;;;;;5002686;28;20669;-75
2022/07/31 09:07:01;;;;;;;4.05;3.40;;;24.40;1.00;;;;;;5002435;28;20184;-74
2022/07/31 09:09:27;;;;;;;4.28;3.25;;;24.70;1.00;;;;;;5002550;28;20812;-77
2022/07/31 09:11:54;;;;;;;3.28;2.95;;;24.80;99.90;;;;;;5000528;28;20482;-76
2022/07/31 09:14:31;;;;;;;4.25;3.00;;;24.40;1.00;;;;;;5001620;28;20525;-77
2022/07/31 09:16:57;;;;;;;4.63;2.30;;;24.50;99.90;;;;;;5000375;28;20187;-77
2022/07/31 09:19:34;;;;;;;2.50;2.30;;;24.80;99.90;;;;;;5001769;28;20589;-75
2022/07/31 09:21:59;;;;;;;3.35;2.47;;;24.90;99.90;;;;;;5000476;28;20239;-77
2022/07/31 09:24:30;;;;;;;2.47;1.98;;;25.10;1.00;;;;;;5002534;28;20606;-74
2022/07/31 09:27:05;;;;;;;2.10;2.00;;;25.20;1.00;;;;;;5002019;28;20172;-77
2022/07/31 09:29:40;;;;;;;3.38;1.95;;;25.40;99.90;;;;;;5002374;28;20189;-76
2022/07/31 09:32:11;;;;;;;2.30;2.10;;;25.50;1.00;;;;;;5001565;28;20202;-77
2022/07/31 09:34:38;;;;;;;2.35;1.85;;;25.70;1.00;;;;;;5002683;28;20187;-75
2022/07/31 09:37:19;;;;;;;4.07;2.15;;;25.70;1.00;;;;;;5002820;28;20915;-77
2022/07/31 09:39:50;;;;;;;3.05;1.90;;;25.80;1.00;;;;;;5005426;28;20628;-75
2022/07/31 09:42:16;;;;;;;3.33;2.22;;;25.60;1.00;;;;;;5005942;28;20995;-76
2022/07/31 09:44:44;;;;;;;3.08;2.08;;;25.40;1.00;;;;;;5005838;28;20269;-75
2022/07/31 09:47:27;;;;;;;1.90;1.80;;;25.20;1.00;;;;;;5005979;28;20563;-77
2022/07/31 09:49:57;;;;;;;5.00;2.10;;;25.20;1.00;;;;;;5005147;28;20463;-75
2022/07/31 09:52:24;;;;;;;2.70;1.88;;;25.10;1.00;;;;;;5004015;28;20261;-76
2022/07/31 09:55:06;;;;;;;2.40;2.00;;;25.00;1.00;;;;;;5005987;28;20218;-76
2022/07/31 09:57:34;;;;;;;3.28;1.88;;;25.10;1.00;;;;;;5005566;28;20183;-77
2022/07/31 10:00:00;;;;;;;2.88;1.90;;;25.40;99.90;;;;;;5003896;28;20203;-76
2022/07/31 10:02:28;;;;;;;2.50;2.30;;;25.50;99.90;;;;;;5005808;28;20200;-76
2022/07/31 10:04:55;;;;;;;3.60;2.50;;;25.50;1.00;;;;;;5005135;28;20708;-76
2022/07/31 10:07:25;;;;;;;3.80;2.20;;;25.60;1.00;;;;;;5005926;28;20446;-76
2022/07/31 10:09:55;;;;;;;3.70;1.95;;;25.70;1.00;;;;;;5005212;28;20203;-76
2022/07/31 10:12:22;;;;;;;2.15;1.80;;;25.80;1.00;;;;;;5005564;28;20491;-76
2022/07/31 10:14:50;;;;;;;3.17;1.95;;;25.70;99.90;;;;;;5005938;28;20186;-77
2022/07/31 10:17:22;;;;;;;2.67;2.00;;;25.70;99.90;;;;;;5005811;28;20272;-76
2022/07/31 10:19:52;;;;;;;2.00;1.90;;;26.10;99.90;;;;;;5005141;28;20620;-77
2022/07/31 10:22:20;;;;;;;3.10;2.00;;;26.00;99.90;;;;;;5004164;28;20196;-77
2022/07/31 10:24:49;;;;;;;2.10;1.90;;;26.00;99.90;;;;;;5005258;28;20559;-77
2022/07/31 10:27:17;;;;;;;2.67;2.13;;;26.30;99.90;;;;;;5005351;28;20709;-76
2022/07/31 10:29:43;;;;;;;3.08;2.17;;;26.30;99.90;;;;;;5003311;28;20237;-76
2022/07/31 10:32:09;;;;;;;2.83;2.05;;;26.10;99.90;;;;;;5005249;28;20209;-77
2022/07/31 10:34:35;;;;;;;2.00;1.88;;;26.30;99.90;;;;;;5005150;28;20186;-76
2022/07/31 10:37:10;;;;;;;3.75;1.80;;;26.10;99.90;;;;;;5005037;28;20299;-74
2022/07/31 10:40:02;;;;;;;2.72;1.98;;;26.00;99.90;;;;;;5005202;28;20202;-76
2022/07/31 10:42:43;;;;;;;2.28;1.70;;;26.10;14.00;;;;;;5005041;28;20207;-75
2022/07/31 10:45:12;;;;;;;4.13;1.85;;;26.20;1.00;;;;;;5002556;28;20548;-76
2022/07/31 10:47:38;;;;;;;3.42;1.80;;;26.20;14.70;;;;;;5004489;28;20190;-77
2022/07/31 10:50:05;;;;;;;2.42;2.22;;;26.10;74.00;;;;;;5003711;28;20563;-77
2022/07/31 10:52:37;;;;;;;2.22;1.90;;;26.00;51.10;;;;;;5004285;28;20444;-75
2022/07/31 10:55:15;;;;;;;3.25;2.10;;;25.70;77.30;;;;;;5003815;28;20198;-75
2022/07/31 10:57:40;;;;;;;2.85;1.92;;;25.80;90.40;;;;;;5004092;28;20183;-74
2022/07/31 11:00:22;;;;;;;2.08;1.90;;;25.80;58.00;;;;;;5004715;28;20214;-76
2022/07/31 11:02:47;;;;;;;2.03;1.63;;;25.70;14.30;;;;;;5003561;28;20195;-77
2022/07/31 11:05:22;;;;;;;1.73;1.60;;;26.00;48.30;;;;;;5004620;28;20176;-76
2022/07/31 11:08:00;;;;;;;2.95;1.75;;;26.10;1.00;;;;;;5002312;28;20179;-77
2022/07/31 11:10:26;;;;;;;2.70;1.45;;;26.00;1.00;;;;;;5004252;28;20286;-76
2022/07/31 11:13:18;;;;;;;2.85;1.92;;;26.10;1.00;;;;;;5002098;28;20294;-76
2022/07/31 11:15:44;;;;;;;2.33;1.63;;;26.00;1.00;;;;;;5001451;28;20195;-76
2022/07/31 11:18:23;;;;;;;3.78;1.65;;;25.90;1.00;;;;;;5003439;28;20546;-75
2022/07/31 11:21:00;;;;;;;2.90;2.00;;;25.90;1.00;;;;;;5003918;28;20195;-76
2022/07/31 11:23:28;;;;;;;1.70;1.60;;;25.80;1.00;;;;;;5003875;28;20218;-75
2022/07/31 11:25:58;;;;;;;2.00;1.70;;;26.10;1.00;;;;;;5004342;28;20229;-76
2022/07/31 11:28:25;;;;;;;2.78;1.80;;;26.20;1.00;;;;;;5001962;28;20665;-76
2022/07/31 11:30:59;;;;;;;2.20;1.50;;;26.60;1.00;;;;;;5004054;28;20180;-76
2022/07/31 11:33:44;;;;;;;1.77;1.58;;;26.90;1.00;;;;;;5003681;28;20218;-76
2022/07/31 11:36:12;;;;;;;2.28;1.70;;;27.10;1.00;;;;;;5003109;28;20180;-76
2022/07/31 11:38:40;;;;;;;3.30;1.70;;;27.50;1.00;;;;;;5002321;28;20179;-75
2022/07/31 11:41:06;;;;;;;2.97;1.80;;;27.50;1.00;;;;;;5002445;28;20525;-77
2022/07/31 11:43:33;;;;;;;2.28;2.08;;;27.30;1.00;;;;;;5003798;28;20188;-75
2022/07/31 11:46:00;;;;;;;1.90;1.60;;;27.40;1.00;;;;;;5003679;28;20563;-74
2022/07/31 11:48:25;;;;;;;1.70;1.60;;;27.40;1.00;;;;;;5003462;28;20329;-74
2022/07/31 11:50:52;;;;;;;2.15;1.88;;;27.10;1.00;;;;;;5003690;28;20206;-77
2022/07/31 11:53:20;;;;;;;1.65;1.50;;;26.60;1.00;;;;;;5001629;28;20215;-75
2022/07/31 11:55:57;;;;;;;1.92;1.60;;;26.80;1.00;;;;;;4997282;28;20237;-76
2022/07/31 11:58:24;;;;;;;2.38;1.70;;;26.90;1.00;;;;;;4997153;28;20195;-75
2022/07/31 12:00:59;;;;;;;2.30;1.73;;;27.00;1.00;;;;;;5018491;28;20214;-74
2022/07/31 12:03:29;;;;;;;2.17;1.70;;;27.30;1.00;;;;;;5003093;28;20549;-76
2022/07/31 12:05:55;;;;;;;3.63;1.85;;;27.50;1.00;;;;;;5001182;28;20187;-77
2022/07/31 12:08:22;;;;;;;2.20;1.60;;;27.60;1.00;;;;;;5002565;28;20191;-75
2022/07/31 12:10:50;;;;;;;1.50;1.40;;;27.70;1.00;;;;;;5002826;28;20195;-76
2022/07/31 12:13:17;;;;;;;2.83;1.60;;;27.50;1.00;;;;;;5001539;28;20287;-77
2022/07/31 12:15:56;;;;;;;1.95;1.45;;;27.50;1.00;;;;;;5003085;28;20183;-76
2022/07/31 12:18:22;;;;;;;1.67;1.50;;;27.40;1.00;;;;;;5002282;28;20184;-74
2022/07/31 12:21:05;;;;;;;2.55;1.25;;;27.70;1.00;;;;;;5001189;28;20203;-77
2022/07/31 12:23:45;;;;;;;2.38;1.70;;;27.90;1.00;;;;;;5002686;28;20221;-74
2022/07/31 12:26:23;;;;;;;1.98;1.45;;;27.90;1.00;;;;;;5002494;28;20179;-77
2022/07/31 12:29:00;;;;;;;1.40;1.30;;;27.80;1.00;;;;;;5001993;28;20222;-76
2022/07/31 12:31:27;;;;;;;1.90;1.52;;;28.00;1.00;;;;;;5003248;28;20611;-77
2022/07/31 12:33:53;;;;;;;1.85;1.45;;;27.90;1.00;;;;;;5002435;28;20755;-75
2022/07/31 12:36:19;;;;;;;2.38;1.70;;;27.80;1.00;;;;;;5000638;28;20183;-75
2022/07/31 12:38:45;;;;;;;2.35;1.63;;;27.60;1.00;;;;;;5001589;28;20550;-77
2022/07/31 12:41:11;;;;;;;2.13;1.63;;;27.40;1.00;;;;;;5002127;28;20352;-77
2022/07/31 12:43:37;;;;;;;2.45;1.40;;;27.40;1.00;;;;;;5002477;28;20171;-76
2022/07/31 12:46:05;;;;;;;3.28;1.55;;;27.10;1.00;;;;;;4999840;28;20202;-77
2022/07/31 12:48:32;;;;;;;2.58;1.50;;;26.90;1.00;;;;;;5001305;28;20197;-75
2022/07/31 12:51:01;;;;;;;1.95;1.52;;;26.90;1.00;;;;;;5001924;28;20215;-76